June,25TH 2022

 

MET REPORT SMJP 251000Z WIND RWY 11 TDZ 230/2KT VIS RWY 11 TDZ 10KM END 10KM CLD RWY 11 FEW 300FT T24 DP24 QNH 1012HPA QFE RWY 11 1010HPA TREND NOSIG=

 

METAR SMJP 251000Z 23002KT 9999 FEW003 24/24 Q1012 NOSIG=

METAR SMZO 251000Z 00000KT 9999 SCT025 25/23 Q1012 NOSIG=

METAR SMNI 251000Z 13002KT 9999 FEW015 25/24 Q1012=